sensor_id;sensor_type;location;lat;lon;timestamp;P1;durP1;ratioP1;P2;durP2;ratioP2
37349;SDS011;23231;52.358;4.926;2022-09-09T00:07:23;5.82;;;3.40;;
37349;SDS011;23231;52.358;4.926;2022-09-09T00:17:43;5.70;;;3.03;;
37349;SDS011;23231;52.358;4.926;2022-09-09T00:23:19;5.28;;;3.33;;
37349;SDS011;23231;52.358;4.926;2022-09-09T00:28:19;6.85;;;3.70;;
37349;SDS011;23231;52.358;4.926;2022-09-09T00:33:23;7.10;;;4.05;;
37349;SDS011;23231;52.358;4.926;2022-09-09T00:38:33;8.02;;;4.20;;
37349;SDS011;23231;52.358;4.926;2022-09-09T00:43:36;11.90;;;5.13;;
37349;SDS011;23231;52.358;4.926;2022-09-09T00:54:08;10.02;;;5.97;;
37349;SDS011;23231;52.358;4.926;2022-09-09T01:09:27;11.10;;;7.65;;
37349;SDS011;23231;52.358;4.926;2022-09-09T01:19:40;11.98;;;8.98;;
37349;SDS011;23231;52.358;4.926;2022-09-09T01:25:05;11.45;;;8.52;;
37349;SDS011;23231;52.358;4.926;2022-09-09T01:30:29;14.50;;;10.07;;
37349;SDS011;23231;52.358;4.926;2022-09-09T01:40:33;17.63;;;11.95;;
37349;SDS011;23231;52.358;4.926;2022-09-09T01:45:33;14.23;;;11.55;;
37349;SDS011;23231;52.358;4.926;2022-09-09T01:50:34;17.02;;;11.80;;
37349;SDS011;23231;52.358;4.926;2022-09-09T01:55:38;15.85;;;11.75;;
37349;SDS011;23231;52.358;4.926;2022-09-09T02:00:43;15.38;;;12.55;;
37349;SDS011;23231;52.358;4.926;2022-09-09T02:05:51;20.00;;;13.98;;
37349;SDS011;23231;52.358;4.926;2022-09-09T02:11:14;25.10;;;14.25;;
37349;SDS011;23231;52.358;4.926;2022-09-09T02:21:32;19.45;;;14.02;;
37349;SDS011;23231;52.358;4.926;2022-09-09T02:26:35;15.93;;;12.52;;
37349;SDS011;23231;52.358;4.926;2022-09-09T02:31:39;19.80;;;13.45;;
37349;SDS011;23231;52.358;4.926;2022-09-09T02:36:41;15.88;;;11.48;;
37349;SDS011;23231;52.358;4.926;2022-09-09T02:41:43;19.20;;;11.88;;
37349;SDS011;23231;52.358;4.926;2022-09-09T02:46:47;16.83;;;11.85;;
37349;SDS011;23231;52.358;4.926;2022-09-09T02:52:10;14.68;;;11.07;;
37349;SDS011;23231;52.358;4.926;2022-09-09T02:57:17;16.67;;;11.15;;
37349;SDS011;23231;52.358;4.926;2022-09-09T03:02:21;14.67;;;10.33;;
37349;SDS011;23231;52.358;4.926;2022-09-09T03:07:21;15.45;;;10.32;;
37349;SDS011;23231;52.358;4.926;2022-09-09T03:12:22;16.92;;;10.57;;
37349;SDS011;23231;52.358;4.926;2022-09-09T03:17:22;21.55;;;11.00;;
37349;SDS011;23231;52.358;4.926;2022-09-09T03:22:22;17.70;;;10.77;;
37349;SDS011;23231;52.358;4.926;2022-09-09T03:27:23;19.90;;;10.52;;
37349;SDS011;23231;52.358;4.926;2022-09-09T03:32:23;17.40;;;10.55;;
37349;SDS011;23231;52.358;4.926;2022-09-09T03:37:25;17.02;;;10.85;;
37349;SDS011;23231;52.358;4.926;2022-09-09T03:42:26;20.17;;;10.77;;
37349;SDS011;23231;52.358;4.926;2022-09-09T03:47:26;15.60;;;10.18;;
37349;SDS011;23231;52.358;4.926;2022-09-09T03:52:28;15.63;;;10.77;;
37349;SDS011;23231;52.358;4.926;2022-09-09T03:57:29;18.15;;;11.07;;
37349;SDS011;23231;52.358;4.926;2022-09-09T04:02:29;19.48;;;11.55;;
37349;SDS011;23231;52.358;4.926;2022-09-09T04:07:30;22.42;;;11.82;;
37349;SDS011;23231;52.358;4.926;2022-09-09T04:12:31;20.17;;;10.38;;
37349;SDS011;23231;52.358;4.926;2022-09-09T04:17:31;18.25;;;11.02;;
37349;SDS011;23231;52.358;4.926;2022-09-09T04:22:33;16.50;;;9.85;;
37349;SDS011;23231;52.358;4.926;2022-09-09T04:27:34;14.80;;;8.52;;
37349;SDS011;23231;52.358;4.926;2022-09-09T04:32:34;15.27;;;8.68;;
37349;SDS011;23231;52.358;4.926;2022-09-09T04:37:35;14.65;;;8.23;;
37349;SDS011;23231;52.358;4.926;2022-09-09T04:42:36;13.65;;;8.68;;
37349;SDS011;23231;52.358;4.926;2022-09-09T04:47:36;15.60;;;8.43;;
37349;SDS011;23231;52.358;4.926;2022-09-09T04:52:37;16.05;;;8.32;;
37349;SDS011;23231;52.358;4.926;2022-09-09T04:57:37;15.10;;;8.20;;
37349;SDS011;23231;52.358;4.926;2022-09-09T05:02:38;10.68;;;6.18;;
37349;SDS011;23231;52.358;4.926;2022-09-09T05:07:39;13.20;;;5.78;;
37349;SDS011;23231;52.358;4.926;2022-09-09T05:12:40;11.73;;;5.40;;
37349;SDS011;23231;52.358;4.926;2022-09-09T05:17:40;9.98;;;5.40;;
37349;SDS011;23231;52.358;4.926;2022-09-09T05:22:41;10.48;;;4.53;;
37349;SDS011;23231;52.358;4.926;2022-09-09T05:27:41;10.10;;;4.68;;
37349;SDS011;23231;52.358;4.926;2022-09-09T05:32:42;10.38;;;4.50;;
37349;SDS011;23231;52.358;4.926;2022-09-09T05:37:43;9.75;;;4.53;;
37349;SDS011;23231;52.358;4.926;2022-09-09T05:42:45;11.77;;;4.75;;
37349;SDS011;23231;52.358;4.926;2022-09-09T05:47:51;15.93;;;5.00;;
37349;SDS011;23231;52.358;4.926;2022-09-09T05:52:54;10.27;;;4.47;;
37349;SDS011;23231;52.358;4.926;2022-09-09T05:57:54;9.85;;;4.57;;
37349;SDS011;23231;52.358;4.926;2022-09-09T06:02:54;12.55;;;4.30;;
37349;SDS011;23231;52.358;4.926;2022-09-09T06:07:55;13.52;;;4.50;;
37349;SDS011;23231;52.358;4.926;2022-09-09T06:12:55;10.88;;;4.45;;
37349;SDS011;23231;52.358;4.926;2022-09-09T06:17:56;12.57;;;4.78;;
37349;SDS011;23231;52.358;4.926;2022-09-09T06:22:56;11.77;;;4.03;;
37349;SDS011;23231;52.358;4.926;2022-09-09T06:27:56;11.20;;;3.95;;
37349;SDS011;23231;52.358;4.926;2022-09-09T06:32:57;12.77;;;4.25;;
37349;SDS011;23231;52.358;4.926;2022-09-09T06:37:58;8.95;;;4.03;;
37349;SDS011;23231;52.358;4.926;2022-09-09T06:43:01;11.88;;;4.20;;
37349;SDS011;23231;52.358;4.926;2022-09-09T06:48:02;12.43;;;4.35;;
37349;SDS011;23231;52.358;4.926;2022-09-09T06:53:02;11.00;;;3.90;;
37349;SDS011;23231;52.358;4.926;2022-09-09T06:58:07;11.45;;;4.07;;
37349;SDS011;23231;52.358;4.926;2022-09-09T07:03:09;12.75;;;4.45;;
37349;SDS011;23231;52.358;4.926;2022-09-09T07:08:10;7.55;;;4.20;;
37349;SDS011;23231;52.358;4.926;2022-09-09T07:13:11;14.32;;;4.85;;
37349;SDS011;23231;52.358;4.926;2022-09-09T07:18:12;9.32;;;3.80;;
37349;SDS011;23231;52.358;4.926;2022-09-09T07:23:13;12.05;;;5.00;;
37349;SDS011;23231;52.358;4.926;2022-09-09T07:28:13;12.23;;;5.07;;
37349;SDS011;23231;52.358;4.926;2022-09-09T07:33:14;13.02;;;5.43;;
37349;SDS011;23231;52.358;4.926;2022-09-09T07:38:14;14.20;;;5.95;;
37349;SDS011;23231;52.358;4.926;2022-09-09T07:43:15;12.35;;;5.95;;
37349;SDS011;23231;52.358;4.926;2022-09-09T07:48:17;15.55;;;6.80;;
37349;SDS011;23231;52.358;4.926;2022-09-09T07:53:17;14.18;;;7.50;;
37349;SDS011;23231;52.358;4.926;2022-09-09T07:58:19;15.52;;;7.43;;
37349;SDS011;23231;52.358;4.926;2022-09-09T08:03:20;13.27;;;6.50;;
37349;SDS011;23231;52.358;4.926;2022-09-09T08:08:21;12.95;;;6.68;;
37349;SDS011;23231;52.358;4.926;2022-09-09T08:13:22;11.15;;;6.28;;
37349;SDS011;23231;52.358;4.926;2022-09-09T08:18:23;14.00;;;6.95;;
37349;SDS011;23231;52.358;4.926;2022-09-09T08:23:23;11.85;;;7.05;;
37349;SDS011;23231;52.358;4.926;2022-09-09T08:28:24;10.43;;;6.68;;
37349;SDS011;23231;52.358;4.926;2022-09-09T08:33:25;11.00;;;6.88;;
37349;SDS011;23231;52.358;4.926;2022-09-09T08:38:25;12.52;;;6.93;;
37349;SDS011;23231;52.358;4.926;2022-09-09T08:43:26;13.98;;;6.80;;
37349;SDS011;23231;52.358;4.926;2022-09-09T08:54:07;11.38;;;5.90;;
37349;SDS011;23231;52.358;4.926;2022-09-09T08:59:09;15.52;;;6.25;;
37349;SDS011;23231;52.358;4.926;2022-09-09T09:09:46;11.52;;;6.03;;
37349;SDS011;23231;52.358;4.926;2022-09-09T09:14:58;14.10;;;6.38;;
37349;SDS011;23231;52.358;4.926;2022-09-09T09:19:59;9.23;;;6.03;;
37349;SDS011;23231;52.358;4.926;2022-09-09T09:25:19;13.13;;;6.45;;
37349;SDS011;23231;52.358;4.926;2022-09-09T09:30:21;12.93;;;6.00;;
37349;SDS011;23231;52.358;4.926;2022-09-09T09:35:23;10.88;;;5.78;;
37349;SDS011;23231;52.358;4.926;2022-09-09T09:40:23;11.18;;;5.57;;
37349;SDS011;23231;52.358;4.926;2022-09-09T09:45:40;9.23;;;5.05;;
37349;SDS011;23231;52.358;4.926;2022-09-09T09:55:59;9.65;;;5.00;;
37349;SDS011;23231;52.358;4.926;2022-09-09T10:01:04;10.50;;;5.55;;
37349;SDS011;23231;52.358;4.926;2022-09-09T10:06:04;14.90;;;5.55;;
37349;SDS011;23231;52.358;4.926;2022-09-09T10:16:14;12.00;;;5.22;;
37349;SDS011;23231;52.358;4.926;2022-09-09T10:37:05;10.80;;;3.95;;
37349;SDS011;23231;52.358;4.926;2022-09-09T10:42:17;9.70;;;3.60;;
37349;SDS011;23231;52.358;4.926;2022-09-09T10:47:22;7.28;;;3.30;;
37349;SDS011;23231;52.358;4.926;2022-09-09T11:02:36;8.50;;;3.58;;
37349;SDS011;23231;52.358;4.926;2022-09-09T11:07:40;8.35;;;3.15;;
37349;SDS011;23231;52.358;4.926;2022-09-09T11:13:03;8.93;;;3.47;;
37349;SDS011;23231;52.358;4.926;2022-09-09T11:18:06;11.20;;;4.07;;
37349;SDS011;23231;52.358;4.926;2022-09-09T11:23:11;10.43;;;3.63;;
37349;SDS011;23231;52.358;4.926;2022-09-09T11:38:45;9.70;;;3.17;;
37349;SDS011;23231;52.358;4.926;2022-09-09T11:43:52;8.57;;;3.40;;
37349;SDS011;23231;52.358;4.926;2022-09-09T11:49:00;9.75;;;3.40;;
37349;SDS011;23231;52.358;4.926;2022-09-09T11:54:02;8.30;;;3.40;;
37349;SDS011;23231;52.358;4.926;2022-09-09T11:59:30;5.63;;;2.40;;
37349;SDS011;23231;52.358;4.926;2022-09-09T12:04:39;7.35;;;2.55;;
37349;SDS011;23231;52.358;4.926;2022-09-09T12:10:01;7.95;;;2.92;;
37349;SDS011;23231;52.358;4.926;2022-09-09T12:36:27;6.47;;;3.22;;
37349;SDS011;23231;52.358;4.926;2022-09-09T12:41:29;10.27;;;4.07;;
37349;SDS011;23231;52.358;4.926;2022-09-09T12:51:42;8.07;;;4.32;;
37349;SDS011;23231;52.358;4.926;2022-09-09T12:56:45;9.02;;;4.57;;
37349;SDS011;23231;52.358;4.926;2022-09-09T13:01:54;6.95;;;4.78;;
37349;SDS011;23231;52.358;4.926;2022-09-09T13:07:05;10.13;;;5.03;;
37349;SDS011;23231;52.358;4.926;2022-09-09T13:12:09;9.05;;;5.07;;
37349;SDS011;23231;52.358;4.926;2022-09-09T13:17:48;9.90;;;6.75;;
37349;SDS011;23231;52.358;4.926;2022-09-09T13:22:40;13.45;;;7.43;;
37349;SDS011;23231;52.358;4.926;2022-09-09T13:27:41;12.88;;;7.63;;
37349;SDS011;23231;52.358;4.926;2022-09-09T13:38:22;11.38;;;7.32;;
37349;SDS011;23231;52.358;4.926;2022-09-09T13:43:25;10.32;;;6.80;;
37349;SDS011;23231;52.358;4.926;2022-09-09T13:48:25;10.02;;;5.97;;
37349;SDS011;23231;52.358;4.926;2022-09-09T13:53:26;7.55;;;5.07;;
37349;SDS011;23231;52.358;4.926;2022-09-09T13:58:27;9.98;;;5.50;;
37349;SDS011;23231;52.358;4.926;2022-09-09T14:03:29;9.85;;;5.00;;
37349;SDS011;23231;52.358;4.926;2022-09-09T14:08:31;9.98;;;4.85;;
37349;SDS011;23231;52.358;4.926;2022-09-09T14:13:36;9.98;;;5.13;;
37349;SDS011;23231;52.358;4.926;2022-09-09T14:18:40;10.75;;;4.97;;
37349;SDS011;23231;52.358;4.926;2022-09-09T14:23:55;8.07;;;4.47;;
37349;SDS011;23231;52.358;4.926;2022-09-09T14:29:03;10.30;;;5.40;;
37349;SDS011;23231;52.358;4.926;2022-09-09T14:34:04;12.93;;;4.20;;
37349;SDS011;23231;52.358;4.926;2022-09-09T14:39:04;9.23;;;3.70;;
37349;SDS011;23231;52.358;4.926;2022-09-09T14:44:05;8.52;;;3.65;;
37349;SDS011;23231;52.358;4.926;2022-09-09T14:49:05;6.20;;;3.42;;
37349;SDS011;23231;52.358;4.926;2022-09-09T14:54:05;6.90;;;3.30;;
37349;SDS011;23231;52.358;4.926;2022-09-09T15:02:22;4.97;;;2.13;;
37349;SDS011;23231;52.358;4.926;2022-09-09T15:07:23;4.80;;;2.10;;
37349;SDS011;23231;52.358;4.926;2022-09-09T15:12:24;5.90;;;1.83;;
37349;SDS011;23231;52.358;4.926;2022-09-09T15:17:24;3.60;;;1.88;;
37349;SDS011;23231;52.358;4.926;2022-09-09T15:22:27;7.20;;;2.00;;
37349;SDS011;23231;52.358;4.926;2022-09-09T15:27:27;6.78;;;2.10;;
37349;SDS011;23231;52.358;4.926;2022-09-09T15:32:29;6.05;;;2.08;;
37349;SDS011;23231;52.358;4.926;2022-09-09T15:37:29;6.60;;;2.10;;
37349;SDS011;23231;52.358;4.926;2022-09-09T15:42:29;6.32;;;2.60;;
37349;SDS011;23231;52.358;4.926;2022-09-09T15:47:30;5.15;;;2.75;;
37349;SDS011;23231;52.358;4.926;2022-09-09T15:52:30;6.70;;;3.72;;
37349;SDS011;23231;52.358;4.926;2022-09-09T15:57:31;9.63;;;4.47;;
37349;SDS011;23231;52.358;4.926;2022-09-09T16:02:31;8.43;;;4.30;;
37349;SDS011;23231;52.358;4.926;2022-09-09T16:07:31;8.52;;;3.85;;
37349;SDS011;23231;52.358;4.926;2022-09-09T16:12:32;11.27;;;5.65;;
37349;SDS011;23231;52.358;4.926;2022-09-09T16:17:32;8.90;;;5.63;;
37349;SDS011;23231;52.358;4.926;2022-09-09T16:22:37;12.10;;;6.82;;
37349;SDS011;23231;52.358;4.926;2022-09-09T16:27:37;12.85;;;6.60;;
37349;SDS011;23231;52.358;4.926;2022-09-09T16:32:38;8.63;;;3.25;;
37349;SDS011;23231;52.358;4.926;2022-09-09T16:37:38;9.40;;;3.20;;
37349;SDS011;23231;52.358;4.926;2022-09-09T16:42:39;6.70;;;3.00;;
37349;SDS011;23231;52.358;4.926;2022-09-09T16:47:39;7.97;;;3.47;;
37349;SDS011;23231;52.358;4.926;2022-09-09T16:52:40;8.65;;;3.80;;
37349;SDS011;23231;52.358;4.926;2022-09-09T16:57:40;8.40;;;3.42;;
37349;SDS011;23231;52.358;4.926;2022-09-09T17:02:41;11.63;;;4.00;;
37349;SDS011;23231;52.358;4.926;2022-09-09T17:07:43;10.25;;;3.90;;
37349;SDS011;23231;52.358;4.926;2022-09-09T17:12:43;11.57;;;4.50;;
37349;SDS011;23231;52.358;4.926;2022-09-09T17:17:44;12.70;;;4.65;;
37349;SDS011;23231;52.358;4.926;2022-09-09T17:22:48;10.23;;;4.32;;
37349;SDS011;23231;52.358;4.926;2022-09-09T17:27:49;11.27;;;4.55;;
37349;SDS011;23231;52.358;4.926;2022-09-09T17:32:50;12.38;;;4.55;;
37349;SDS011;23231;52.358;4.926;2022-09-09T17:37:52;11.25;;;5.20;;
37349;SDS011;23231;52.358;4.926;2022-09-09T17:42:55;11.88;;;5.03;;
37349;SDS011;23231;52.358;4.926;2022-09-09T17:47:56;10.70;;;7.18;;
37349;SDS011;23231;52.358;4.926;2022-09-09T17:52:56;13.60;;;7.15;;
37349;SDS011;23231;52.358;4.926;2022-09-09T17:57:56;15.55;;;7.60;;
37349;SDS011;23231;52.358;4.926;2022-09-09T18:02:59;12.95;;;7.70;;
37349;SDS011;23231;52.358;4.926;2022-09-09T18:07:59;17.23;;;8.48;;
37349;SDS011;23231;52.358;4.926;2022-09-09T18:12:59;20.10;;;9.40;;
37349;SDS011;23231;52.358;4.926;2022-09-09T18:18:01;19.70;;;10.70;;
37349;SDS011;23231;52.358;4.926;2022-09-09T18:23:06;15.53;;;8.93;;
37349;SDS011;23231;52.358;4.926;2022-09-09T18:28:07;21.70;;;11.10;;
37349;SDS011;23231;52.358;4.926;2022-09-09T18:33:07;20.13;;;11.57;;
37349;SDS011;23231;52.358;4.926;2022-09-09T18:38:07;19.10;;;11.30;;
37349;SDS011;23231;52.358;4.926;2022-09-09T18:43:08;24.05;;;12.60;;
37349;SDS011;23231;52.358;4.926;2022-09-09T18:48:10;20.92;;;10.05;;
37349;SDS011;23231;52.358;4.926;2022-09-09T18:53:11;20.58;;;12.32;;
37349;SDS011;23231;52.358;4.926;2022-09-09T18:58:14;19.55;;;11.80;;
37349;SDS011;23231;52.358;4.926;2022-09-09T19:03:14;21.77;;;11.98;;
37349;SDS011;23231;52.358;4.926;2022-09-09T19:08:17;20.38;;;10.23;;
37349;SDS011;23231;52.358;4.926;2022-09-09T19:13:19;17.20;;;8.68;;
37349;SDS011;23231;52.358;4.926;2022-09-09T19:18:19;17.10;;;8.88;;
37349;SDS011;23231;52.358;4.926;2022-09-09T19:23:20;20.08;;;10.18;;
37349;SDS011;23231;52.358;4.926;2022-09-09T19:28:20;17.58;;;8.93;;
37349;SDS011;23231;52.358;4.926;2022-09-09T19:33:20;19.15;;;9.15;;
37349;SDS011;23231;52.358;4.926;2022-09-09T19:38:21;22.45;;;10.52;;
37349;SDS011;23231;52.358;4.926;2022-09-09T19:43:21;20.38;;;10.05;;
37349;SDS011;23231;52.358;4.926;2022-09-09T19:48:24;28.35;;;11.85;;
37349;SDS011;23231;52.358;4.926;2022-09-09T19:53:25;17.90;;;8.82;;
37349;SDS011;23231;52.358;4.926;2022-09-09T19:58:26;19.98;;;10.27;;
37349;SDS011;23231;52.358;4.926;2022-09-09T20:03:26;23.13;;;10.93;;
37349;SDS011;23231;52.358;4.926;2022-09-09T20:08:27;18.42;;;9.00;;
37349;SDS011;23231;52.358;4.926;2022-09-09T20:13:28;22.27;;;9.35;;
37349;SDS011;23231;52.358;4.926;2022-09-09T20:18:30;25.25;;;10.30;;
37349;SDS011;23231;52.358;4.926;2022-09-09T20:23:32;20.55;;;9.30;;
37349;SDS011;23231;52.358;4.926;2022-09-09T20:28:33;21.10;;;9.48;;
37349;SDS011;23231;52.358;4.926;2022-09-09T20:33:37;15.60;;;8.40;;
37349;SDS011;23231;52.358;4.926;2022-09-09T20:38:42;18.73;;;8.75;;
37349;SDS011;23231;52.358;4.926;2022-09-09T20:43:46;21.45;;;8.80;;
37349;SDS011;23231;52.358;4.926;2022-09-09T20:48:56;16.67;;;8.43;;
37349;SDS011;23231;52.358;4.926;2022-09-09T20:54:07;17.45;;;9.00;;
37349;SDS011;23231;52.358;4.926;2022-09-09T20:59:11;21.50;;;10.15;;
37349;SDS011;23231;52.358;4.926;2022-09-09T21:04:14;22.33;;;9.32;;
37349;SDS011;23231;52.358;4.926;2022-09-09T21:09:15;21.55;;;9.57;;
37349;SDS011;23231;52.358;4.926;2022-09-09T21:14:16;21.65;;;9.77;;
37349;SDS011;23231;52.358;4.926;2022-09-09T21:19:17;22.00;;;10.27;;
37349;SDS011;23231;52.358;4.926;2022-09-09T21:24:17;21.90;;;11.07;;
37349;SDS011;23231;52.358;4.926;2022-09-09T21:29:18;23.45;;;11.65;;
37349;SDS011;23231;52.358;4.926;2022-09-09T21:34:18;22.30;;;12.82;;
37349;SDS011;23231;52.358;4.926;2022-09-09T21:39:18;25.30;;;13.77;;
37349;SDS011;23231;52.358;4.926;2022-09-09T21:44:19;27.75;;;13.18;;
37349;SDS011;23231;52.358;4.926;2022-09-09T21:49:20;22.77;;;12.57;;
37349;SDS011;23231;52.358;4.926;2022-09-09T21:54:20;19.88;;;11.43;;
37349;SDS011;23231;52.358;4.926;2022-09-09T21:59:20;21.85;;;12.35;;
37349;SDS011;23231;52.358;4.926;2022-09-09T22:04:21;30.23;;;15.27;;
37349;SDS011;23231;52.358;4.926;2022-09-09T22:09:22;24.33;;;13.13;;
37349;SDS011;23231;52.358;4.926;2022-09-09T22:14:22;28.25;;;14.30;;
37349;SDS011;23231;52.358;4.926;2022-09-09T22:19:23;23.60;;;13.98;;
37349;SDS011;23231;52.358;4.926;2022-09-09T22:24:24;22.55;;;12.48;;
37349;SDS011;23231;52.358;4.926;2022-09-09T22:29:26;22.63;;;11.57;;
37349;SDS011;23231;52.358;4.926;2022-09-09T22:34:26;24.70;;;11.63;;
37349;SDS011;23231;52.358;4.926;2022-09-09T22:39:27;22.33;;;11.25;;
37349;SDS011;23231;52.358;4.926;2022-09-09T22:44:28;20.63;;;10.90;;
37349;SDS011;23231;52.358;4.926;2022-09-09T22:49:30;21.83;;;10.35;;
37349;SDS011;23231;52.358;4.926;2022-09-09T22:54:31;18.60;;;9.15;;
37349;SDS011;23231;52.358;4.926;2022-09-09T22:59:31;24.50;;;13.18;;
37349;SDS011;23231;52.358;4.926;2022-09-09T23:04:31;22.67;;;11.32;;
37349;SDS011;23231;52.358;4.926;2022-09-09T23:09:32;20.52;;;10.90;;
37349;SDS011;23231;52.358;4.926;2022-09-09T23:14:32;17.20;;;10.20;;
37349;SDS011;23231;52.358;4.926;2022-09-09T23:19:33;26.73;;;13.88;;
37349;SDS011;23231;52.358;4.926;2022-09-09T23:24:34;26.65;;;15.85;;
37349;SDS011;23231;52.358;4.926;2022-09-09T23:29:34;26.63;;;15.50;;
37349;SDS011;23231;52.358;4.926;2022-09-09T23:34:35;28.13;;;16.30;;
37349;SDS011;23231;52.358;4.926;2022-09-09T23:39:37;30.55;;;18.48;;
37349;SDS011;23231;52.358;4.926;2022-09-09T23:44:39;37.65;;;19.13;;
37349;SDS011;23231;52.358;4.926;2022-09-09T23:49:39;35.85;;;20.00;;
37349;SDS011;23231;52.358;4.926;2022-09-09T23:54:40;24.75;;;16.90;;
37349;SDS011;23231;52.358;4.926;2022-09-09T23:59:40;36.67;;;20.27;;
